Crown Hill, Washington
Current Conditions -  °F | °C
As of 12:53 AM on Thursday 23 Oct 2014 (Local Time) from KBFI Reporting Station
Broken Clouds Broken Clouds  
Wind Chill: 56°   Ceiling: 6000
Heat Index: 56°   Visibility: 10mi
Dew Point: 49°   Wind: 10mph
Humidity: 77%   Direction: 170°S
Pressure: 29.73"   Gusts: NA
Location:  47.688°N, 122.381°W
Report Text: KBFI 230753Z 17009KT 10SM FEW025 BKN060 BKN095 13/09 A2973 RMK AO2 RAE29 SLP067 P0002 T01330094 401560128
Loading
Personal Weather Stations






























Interactive Weather Map
Tropical Storm Tracking
New forecast layout! Learn more

10-Day Weather Forecast

Advertisements
Track Severe Weather on mobile